sensor_id;sensor_type;location;lat;lon;timestamp;temperature;humidity
3408;DHT22;1717;50.240;8.406;2023-02-27T00:00:59;0.60;99.90
3408;DHT22;1717;50.240;8.406;2023-02-27T00:03:26;0.60;99.90
3408;DHT22;1717;50.240;8.406;2023-02-27T00:05:53;0.50;99.90
3408;DHT22;1717;50.240;8.406;2023-02-27T00:08:21;0.50;99.90
3408;DHT22;1717;50.240;8.406;2023-02-27T00:10:48;0.50;99.90
3408;DHT22;1717;50.240;8.406;2023-02-27T00:13:15;0.50;99.90
3408;DHT22;1717;50.240;8.406;2023-02-27T00:15:45;0.40;99.90
3408;DHT22;1717;50.240;8.406;2023-02-27T00:18:12;0.50;99.90
3408;DHT22;1717;50.240;8.406;2023-02-27T00:20:39;0.40;99.90
3408;DHT22;1717;50.240;8.406;2023-02-27T00:23:07;0.40;99.90
3408;DHT22;1717;50.240;8.406;2023-02-27T00:25:35;0.40;99.90
3408;DHT22;1717;50.240;8.406;2023-02-27T00:28:03;0.40;99.90
3408;DHT22;1717;50.240;8.406;2023-02-27T00:30:30;0.40;99.90
3408;DHT22;1717;50.240;8.406;2023-02-27T00:32:59;0.40;99.90
3408;DHT22;1717;50.240;8.406;2023-02-27T00:35:26;0.60;99.90
3408;DHT22;1717;50.240;8.406;2023-02-27T00:37:53;0.30;99.90
3408;DHT22;1717;50.240;8.406;2023-02-27T00:40:20;0.30;99.90
3408;DHT22;1717;50.240;8.406;2023-02-27T00:42:50;0.30;99.90
3408;DHT22;1717;50.240;8.406;2023-02-27T00:45:17;0.30;99.90
3408;DHT22;1717;50.240;8.406;2023-02-27T00:47:45;0.30;99.90
3408;DHT22;1717;50.240;8.406;2023-02-27T00:50:13;0.30;99.90
3408;DHT22;1717;50.240;8.406;2023-02-27T00:52:41;0.30;99.90
3408;DHT22;1717;50.240;8.406;2023-02-27T00:55:08;0.20;99.90
3408;DHT22;1717;50.240;8.406;2023-02-27T00:57:35;0.20;99.90
3408;DHT22;1717;50.240;8.406;2023-02-27T01:00:04;0.20;99.90
3408;DHT22;1717;50.240;8.406;2023-02-27T01:02:31;0.20;99.90
3408;DHT22;1717;50.240;8.406;2023-02-27T01:04:58;0.20;99.90
3408;DHT22;1717;50.240;8.406;2023-02-27T01:07:27;0.20;99.90
3408;DHT22;1717;50.240;8.406;2023-02-27T01:09:53;0.20;99.90
3408;DHT22;1717;50.240;8.406;2023-02-27T01:12:20;0.10;99.90
3408;DHT22;1717;50.240;8.406;2023-02-27T01:14:47;0.10;99.90
3408;DHT22;1717;50.240;8.406;2023-02-27T01:17:14;0.10;99.90
3408;DHT22;1717;50.240;8.406;2023-02-27T01:19:41;0.10;99.90
3408;DHT22;1717;50.240;8.406;2023-02-27T01:22:08;0.10;99.90
3408;DHT22;1717;50.240;8.406;2023-02-27T01:24:36;0.10;99.90
3408;DHT22;1717;50.240;8.406;2023-02-27T01:27:03;0.10;99.90
3408;DHT22;1717;50.240;8.406;2023-02-27T01:29:30;0.10;99.90
3408;DHT22;1717;50.240;8.406;2023-02-27T01:31:57;0.10;99.90
3408;DHT22;1717;50.240;8.406;2023-02-27T01:34:24;0.00;99.90
3408;DHT22;1717;50.240;8.406;2023-02-27T01:36:51;0.10;99.90
3408;DHT22;1717;50.240;8.406;2023-02-27T01:39:17;0.10;99.90
3408;DHT22;1717;50.240;8.406;2023-02-27T01:41:46;0.10;99.90
3408;DHT22;1717;50.240;8.406;2023-02-27T01:44:14;0.10;99.90
3408;DHT22;1717;50.240;8.406;2023-02-27T01:46:41;0.00;99.90
3408;DHT22;1717;50.240;8.406;2023-02-27T01:49:10;-0.10;99.90
3408;DHT22;1717;50.240;8.406;2023-02-27T01:51:42;0.00;99.90
3408;DHT22;1717;50.240;8.406;2023-02-27T01:54:11;-0.10;99.90
3408;DHT22;1717;50.240;8.406;2023-02-27T01:56:40;-0.10;99.90
3408;DHT22;1717;50.240;8.406;2023-02-27T01:59:10;-0.10;99.90
3408;DHT22;1717;50.240;8.406;2023-02-27T02:01:37;-0.20;99.90
3408;DHT22;1717;50.240;8.406;2023-02-27T02:04:10;-0.10;99.90
3408;DHT22;1717;50.240;8.406;2023-02-27T02:06:41;-0.10;99.90
3408;DHT22;1717;50.240;8.406;2023-02-27T02:09:11;-0.20;99.90
3408;DHT22;1717;50.240;8.406;2023-02-27T02:11:40;-0.20;99.90
3408;DHT22;1717;50.240;8.406;2023-02-27T02:14:08;-0.20;99.90
3408;DHT22;1717;50.240;8.406;2023-02-27T02:17:03;-0.20;99.90
3408;DHT22;1717;50.240;8.406;2023-02-27T02:29:14;-0.30;99.90
3408;DHT22;1717;50.240;8.406;2023-02-27T02:35:25;-0.30;99.90
3408;DHT22;1717;50.240;8.406;2023-02-27T02:41:19;-0.40;99.90
3408;DHT22;1717;50.240;8.406;2023-02-27T02:43:58;-0.40;99.90
3408;DHT22;1717;50.240;8.406;2023-02-27T02:46:31;-0.40;99.90
3408;DHT22;1717;50.240;8.406;2023-02-27T02:49:04;-0.40;99.90
3408;DHT22;1717;50.240;8.406;2023-02-27T02:51:35;-0.40;99.90
3408;DHT22;1717;50.240;8.406;2023-02-27T02:54:08;-0.40;99.90
3408;DHT22;1717;50.240;8.406;2023-02-27T02:56:39;-0.40;99.90
3408;DHT22;1717;50.240;8.406;2023-02-27T02:59:11;-0.40;99.90
3408;DHT22;1717;50.240;8.406;2023-02-27T03:01:42;-0.40;99.90
3408;DHT22;1717;50.240;8.406;2023-02-27T03:04:13;-0.40;99.90
3408;DHT22;1717;50.240;8.406;2023-02-27T03:06:46;-0.40;99.90
3408;DHT22;1717;50.240;8.406;2023-02-27T03:09:18;-0.50;99.90
3408;DHT22;1717;50.240;8.406;2023-02-27T03:11:50;-0.50;99.90
3408;DHT22;1717;50.240;8.406;2023-02-27T03:14:21;-0.50;99.90
3408;DHT22;1717;50.240;8.406;2023-02-27T03:16:53;-0.50;99.90
3408;DHT22;1717;50.240;8.406;2023-02-27T03:19:24;-0.50;99.90
3408;DHT22;1717;50.240;8.406;2023-02-27T03:21:55;-0.50;99.90
3408;DHT22;1717;50.240;8.406;2023-02-27T03:24:27;-0.50;99.90
3408;DHT22;1717;50.240;8.406;2023-02-27T03:26:58;-0.70;99.90
3408;DHT22;1717;50.240;8.406;2023-02-27T03:29:30;-0.50;99.90
3408;DHT22;1717;50.240;8.406;2023-02-27T03:32:05;-0.50;99.90
3408;DHT22;1717;50.240;8.406;2023-02-27T03:34:36;-0.60;99.90
3408;DHT22;1717;50.240;8.406;2023-02-27T03:37:11;-0.60;99.90
3408;DHT22;1717;50.240;8.406;2023-02-27T03:39:44;-0.60;99.90
3408;DHT22;1717;50.240;8.406;2023-02-27T03:42:20;-0.60;99.90
3408;DHT22;1717;50.240;8.406;2023-02-27T03:44:54;-0.60;99.90
3408;DHT22;1717;50.240;8.406;2023-02-27T03:47:22;-0.60;99.90
3408;DHT22;1717;50.240;8.406;2023-02-27T03:49:49;-0.60;99.90
3408;DHT22;1717;50.240;8.406;2023-02-27T03:52:17;-0.70;99.90
3408;DHT22;1717;50.240;8.406;2023-02-27T03:54:48;-0.70;99.90
3408;DHT22;1717;50.240;8.406;2023-02-27T03:57:17;-0.60;99.90
3408;DHT22;1717;50.240;8.406;2023-02-27T03:59:44;-0.60;99.90
3408;DHT22;1717;50.240;8.406;2023-02-27T04:02:11;-0.60;99.90
3408;DHT22;1717;50.240;8.406;2023-02-27T04:04:38;-0.70;99.70
3408;DHT22;1717;50.240;8.406;2023-02-27T04:07:09;-0.70;99.90
3408;DHT22;1717;50.240;8.406;2023-02-27T04:10:08;-0.70;99.80
3408;DHT22;1717;50.240;8.406;2023-02-27T04:15:34;-0.70;99.70
3408;DHT22;1717;50.240;8.406;2023-02-27T04:18:16;-0.70;99.70
3408;DHT22;1717;50.240;8.406;2023-02-27T04:20:48;-0.80;99.60
3408;DHT22;1717;50.240;8.406;2023-02-27T04:23:21;-0.80;99.80
3408;DHT22;1717;50.240;8.406;2023-02-27T04:25:53;-0.80;99.50
3408;DHT22;1717;50.240;8.406;2023-02-27T04:28:28;-0.90;99.60
3408;DHT22;1717;50.240;8.406;2023-02-27T04:31:09;-0.90;99.90
3408;DHT22;1717;50.240;8.406;2023-02-27T04:33:44;-1.00;99.90
3408;DHT22;1717;50.240;8.406;2023-02-27T04:36:17;-0.90;99.90
3408;DHT22;1717;50.240;8.406;2023-02-27T04:38:49;-1.00;99.80
3408;DHT22;1717;50.240;8.406;2023-02-27T04:41:22;-1.00;99.90
3408;DHT22;1717;50.240;8.406;2023-02-27T04:43:53;-1.00;99.90
3408;DHT22;1717;50.240;8.406;2023-02-27T04:46:24;-1.00;99.90
3408;DHT22;1717;50.240;8.406;2023-02-27T04:48:57;-1.00;99.90
3408;DHT22;1717;50.240;8.406;2023-02-27T04:51:28;-1.10;99.90
3408;DHT22;1717;50.240;8.406;2023-02-27T04:53:59;-1.10;99.90
3408;DHT22;1717;50.240;8.406;2023-02-27T04:56:30;-1.10;99.60
3408;DHT22;1717;50.240;8.406;2023-02-27T04:59:03;-0.90;99.90
3408;DHT22;1717;50.240;8.406;2023-02-27T05:01:36;-1.20;99.90
3408;DHT22;1717;50.240;8.406;2023-02-27T05:04:06;-1.20;99.90
3408;DHT22;1717;50.240;8.406;2023-02-27T05:06:37;-1.20;99.90
3408;DHT22;1717;50.240;8.406;2023-02-27T05:09:10;-1.00;99.90
3408;DHT22;1717;50.240;8.406;2023-02-27T05:11:44;-1.20;99.90
3408;DHT22;1717;50.240;8.406;2023-02-27T05:14:18;-1.20;99.90
3408;DHT22;1717;50.240;8.406;2023-02-27T05:16:50;-1.20;99.90
3408;DHT22;1717;50.240;8.406;2023-02-27T05:19:19;-1.20;99.90
3408;DHT22;1717;50.240;8.406;2023-02-27T05:21:50;-1.20;99.90
3408;DHT22;1717;50.240;8.406;2023-02-27T05:24:27;-1.30;99.90
3408;DHT22;1717;50.240;8.406;2023-02-27T05:27:11;-1.20;99.90
3408;DHT22;1717;50.240;8.406;2023-02-27T05:29:45;-1.20;99.90
3408;DHT22;1717;50.240;8.406;2023-02-27T05:32:24;-1.20;99.90
3408;DHT22;1717;50.240;8.406;2023-02-27T05:34:56;-1.30;99.90
3408;DHT22;1717;50.240;8.406;2023-02-27T05:37:27;-1.30;99.90
3408;DHT22;1717;50.240;8.406;2023-02-27T05:39:58;-1.30;99.90
3408;DHT22;1717;50.240;8.406;2023-02-27T05:42:29;-1.10;99.90
3408;DHT22;1717;50.240;8.406;2023-02-27T05:45:02;-1.30;99.60
3408;DHT22;1717;50.240;8.406;2023-02-27T05:47:32;-1.30;99.70
3408;DHT22;1717;50.240;8.406;2023-02-27T05:50:06;-1.30;99.50
3408;DHT22;1717;50.240;8.406;2023-02-27T05:52:35;-1.30;99.60
3408;DHT22;1717;50.240;8.406;2023-02-27T05:55:05;-1.30;99.70
3408;DHT22;1717;50.240;8.406;2023-02-27T05:57:35;-1.40;99.60
3408;DHT22;1717;50.240;8.406;2023-02-27T06:00:10;-1.40;99.70
3408;DHT22;1717;50.240;8.406;2023-02-27T06:02:39;-1.30;99.70
3408;DHT22;1717;50.240;8.406;2023-02-27T06:05:07;-1.30;99.50
3408;DHT22;1717;50.240;8.406;2023-02-27T06:07:34;-1.40;99.20
3408;DHT22;1717;50.240;8.406;2023-02-27T06:10:02;-1.40;99.30
3408;DHT22;1717;50.240;8.406;2023-02-27T06:12:30;-1.40;99.40
3408;DHT22;1717;50.240;8.406;2023-02-27T06:14:57;-1.40;99.70
3408;DHT22;1717;50.240;8.406;2023-02-27T06:17:25;-1.50;99.60
3408;DHT22;1717;50.240;8.406;2023-02-27T06:19:52;-1.50;99.60
3408;DHT22;1717;50.240;8.406;2023-02-27T06:22:19;-1.50;99.60
3408;DHT22;1717;50.240;8.406;2023-02-27T06:24:45;-1.50;99.70
3408;DHT22;1717;50.240;8.406;2023-02-27T06:27:12;-1.50;99.60
3408;DHT22;1717;50.240;8.406;2023-02-27T06:29:39;-1.50;99.70
3408;DHT22;1717;50.240;8.406;2023-02-27T06:32:06;-1.50;99.80
3408;DHT22;1717;50.240;8.406;2023-02-27T06:34:35;-1.40;99.80
3408;DHT22;1717;50.240;8.406;2023-02-27T06:37:01;-1.50;99.70
3408;DHT22;1717;50.240;8.406;2023-02-27T06:39:28;-1.50;99.60
3408;DHT22;1717;50.240;8.406;2023-02-27T06:41:55;-1.50;99.70
3408;DHT22;1717;50.240;8.406;2023-02-27T06:44:22;-1.50;99.60
3408;DHT22;1717;50.240;8.406;2023-02-27T06:46:49;-1.50;99.60
3408;DHT22;1717;50.240;8.406;2023-02-27T06:49:16;-1.40;99.70
3408;DHT22;1717;50.240;8.406;2023-02-27T06:51:44;-1.60;99.80
3408;DHT22;1717;50.240;8.406;2023-02-27T06:54:11;-1.60;99.90
3408;DHT22;1717;50.240;8.406;2023-02-27T06:56:38;-1.40;99.90
3408;DHT22;1717;50.240;8.406;2023-02-27T06:59:05;-1.60;99.90
3408;DHT22;1717;50.240;8.406;2023-02-27T07:01:32;-1.60;99.90
3408;DHT22;1717;50.240;8.406;2023-02-27T07:03:59;-1.60;99.90
3408;DHT22;1717;50.240;8.406;2023-02-27T07:06:26;-1.60;99.90
3408;DHT22;1717;50.240;8.406;2023-02-27T07:08:54;-1.50;99.90
3408;DHT22;1717;50.240;8.406;2023-02-27T07:11:21;-1.50;99.90
3408;DHT22;1717;50.240;8.406;2023-02-27T07:13:48;-1.50;99.90
3408;DHT22;1717;50.240;8.406;2023-02-27T07:16:15;-1.50;99.90
3408;DHT22;1717;50.240;8.406;2023-02-27T07:18:42;-1.50;99.90
3408;DHT22;1717;50.240;8.406;2023-02-27T07:21:09;-1.50;99.90
3408;DHT22;1717;50.240;8.406;2023-02-27T07:23:36;-1.50;99.90
3408;DHT22;1717;50.240;8.406;2023-02-27T07:26:04;-1.50;99.90
3408;DHT22;1717;50.240;8.406;2023-02-27T07:28:31;-1.50;99.90
3408;DHT22;1717;50.240;8.406;2023-02-27T07:30:59;-1.50;99.90
3408;DHT22;1717;50.240;8.406;2023-02-27T07:33:26;-1.50;99.90
3408;DHT22;1717;50.240;8.406;2023-02-27T07:35:53;-1.20;99.90
3408;DHT22;1717;50.240;8.406;2023-02-27T07:38:20;-1.20;99.90
3408;DHT22;1717;50.240;8.406;2023-02-27T07:40:48;-1.40;99.90
3408;DHT22;1717;50.240;8.406;2023-02-27T07:43:17;-1.40;99.90
3408;DHT22;1717;50.240;8.406;2023-02-27T07:45:44;-1.40;99.90
3408;DHT22;1717;50.240;8.406;2023-02-27T07:48:11;-1.40;99.90
3408;DHT22;1717;50.240;8.406;2023-02-27T07:50:38;-1.40;99.90
3408;DHT22;1717;50.240;8.406;2023-02-27T07:53:05;-1.20;99.90
3408;DHT22;1717;50.240;8.406;2023-02-27T07:55:32;-1.30;99.90
3408;DHT22;1717;50.240;8.406;2023-02-27T07:57:59;-1.20;99.90
3408;DHT22;1717;50.240;8.406;2023-02-27T08:00:27;-1.00;99.90
3408;DHT22;1717;50.240;8.406;2023-02-27T08:02:54;-1.30;99.90
3408;DHT22;1717;50.240;8.406;2023-02-27T08:05:21;-1.30;99.90
3408;DHT22;1717;50.240;8.406;2023-02-27T08:07:48;-1.30;99.90
3408;DHT22;1717;50.240;8.406;2023-02-27T08:10:16;-1.20;99.90
3408;DHT22;1717;50.240;8.406;2023-02-27T08:12:43;-1.20;99.90
3408;DHT22;1717;50.240;8.406;2023-02-27T08:15:10;-1.20;99.90
3408;DHT22;1717;50.240;8.406;2023-02-27T08:17:39;-1.20;99.90
3408;DHT22;1717;50.240;8.406;2023-02-27T08:20:07;-0.90;99.90
3408;DHT22;1717;50.240;8.406;2023-02-27T08:22:36;-1.10;99.90
3408;DHT22;1717;50.240;8.406;2023-02-27T08:25:03;-1.20;99.90
3408;DHT22;1717;50.240;8.406;2023-02-27T08:27:32;-1.00;99.90
3408;DHT22;1717;50.240;8.406;2023-02-27T08:29:59;-0.90;99.90
3408;DHT22;1717;50.240;8.406;2023-02-27T08:32:26;-0.80;99.90
3408;DHT22;1717;50.240;8.406;2023-02-27T08:34:54;-0.70;99.90
3408;DHT22;1717;50.240;8.406;2023-02-27T08:37:21;-0.60;99.90
3408;DHT22;1717;50.240;8.406;2023-02-27T08:39:48;-0.50;99.90
3408;DHT22;1717;50.240;8.406;2023-02-27T08:42:15;-0.40;99.90
3408;DHT22;1717;50.240;8.406;2023-02-27T08:44:42;-0.20;99.90
3408;DHT22;1717;50.240;8.406;2023-02-27T08:47:09;-0.10;99.90
3408;DHT22;1717;50.240;8.406;2023-02-27T08:49:36;0.00;99.90
3408;DHT22;1717;50.240;8.406;2023-02-27T08:52:04;0.10;99.90
3408;DHT22;1717;50.240;8.406;2023-02-27T08:54:33;0.20;99.90
3408;DHT22;1717;50.240;8.406;2023-02-27T08:57:01;0.30;99.90
3408;DHT22;1717;50.240;8.406;2023-02-27T08:59:28;0.40;99.90
3408;DHT22;1717;50.240;8.406;2023-02-27T09:01:56;0.70;99.90
3408;DHT22;1717;50.240;8.406;2023-02-27T09:04:23;0.60;99.90
3408;DHT22;1717;50.240;8.406;2023-02-27T09:06:52;0.40;99.90
3408;DHT22;1717;50.240;8.406;2023-02-27T09:09:21;0.70;99.90
3408;DHT22;1717;50.240;8.406;2023-02-27T09:11:49;0.80;99.90
3408;DHT22;1717;50.240;8.406;2023-02-27T09:14:16;0.80;99.90
3408;DHT22;1717;50.240;8.406;2023-02-27T09:16:44;0.90;99.90
3408;DHT22;1717;50.240;8.406;2023-02-27T09:19:11;1.00;99.90
3408;DHT22;1717;50.240;8.406;2023-02-27T09:21:39;1.00;99.90
3408;DHT22;1717;50.240;8.406;2023-02-27T09:24:06;1.10;99.90
3408;DHT22;1717;50.240;8.406;2023-02-27T09:26:37;1.20;99.90
3408;DHT22;1717;50.240;8.406;2023-02-27T09:29:03;1.20;99.90
3408;DHT22;1717;50.240;8.406;2023-02-27T09:31:30;1.30;99.90
3408;DHT22;1717;50.240;8.406;2023-02-27T09:33:57;1.40;99.90
3408;DHT22;1717;50.240;8.406;2023-02-27T09:36:26;1.40;99.90
3408;DHT22;1717;50.240;8.406;2023-02-27T09:38:53;1.50;99.90
3408;DHT22;1717;50.240;8.406;2023-02-27T09:41:32;1.60;99.90
3408;DHT22;1717;50.240;8.406;2023-02-27T09:44:14;1.70;99.90
3408;DHT22;1717;50.240;8.406;2023-02-27T09:46:42;1.70;99.90
3408;DHT22;1717;50.240;8.406;2023-02-27T09:49:13;1.80;99.90
3408;DHT22;1717;50.240;8.406;2023-02-27T09:51:41;1.90;99.90
3408;DHT22;1717;50.240;8.406;2023-02-27T09:54:10;1.90;99.90
3408;DHT22;1717;50.240;8.406;2023-02-27T09:56:41;2.00;99.90
3408;DHT22;1717;50.240;8.406;2023-02-27T09:59:17;2.00;99.90
3408;DHT22;1717;50.240;8.406;2023-02-27T10:01:50;2.10;99.90
3408;DHT22;1717;50.240;8.406;2023-02-27T10:04:38;2.20;99.90
3408;DHT22;1717;50.240;8.406;2023-02-27T10:07:12;2.20;99.90
3408;DHT22;1717;50.240;8.406;2023-02-27T10:09:54;2.30;99.90
3408;DHT22;1717;50.240;8.406;2023-02-27T10:12:33;2.30;99.90
3408;DHT22;1717;50.240;8.406;2023-02-27T10:15:11;2.30;99.90
3408;DHT22;1717;50.240;8.406;2023-02-27T10:17:43;2.30;99.90
3408;DHT22;1717;50.240;8.406;2023-02-27T10:20:19;2.40;99.90
3408;DHT22;1717;50.240;8.406;2023-02-27T10:22:49;2.40;99.90
3408;DHT22;1717;50.240;8.406;2023-02-27T10:25:18;2.50;99.90
3408;DHT22;1717;50.240;8.406;2023-02-27T10:27:48;2.50;99.90
3408;DHT22;1717;50.240;8.406;2023-02-27T10:30:22;2.60;99.90
3408;DHT22;1717;50.240;8.406;2023-02-27T10:32:53;2.60;99.90
3408;DHT22;1717;50.240;8.406;2023-02-27T10:35:26;2.60;99.90
3408;DHT22;1717;50.240;8.406;2023-02-27T10:37:58;2.70;99.90
3408;DHT22;1717;50.240;8.406;2023-02-27T10:40:26;2.70;99.90
3408;DHT22;1717;50.240;8.406;2023-02-27T10:42:56;2.70;99.90
3408;DHT22;1717;50.240;8.406;2023-02-27T10:45:26;2.60;99.90
3408;DHT22;1717;50.240;8.406;2023-02-27T10:47:53;2.80;99.90
3408;DHT22;1717;50.240;8.406;2023-02-27T10:50:22;2.60;99.90
3408;DHT22;1717;50.240;8.406;2023-02-27T10:52:51;2.60;99.90
3408;DHT22;1717;50.240;8.406;2023-02-27T10:55:22;2.70;99.90
3408;DHT22;1717;50.240;8.406;2023-02-27T10:57:49;2.60;99.90
3408;DHT22;1717;50.240;8.406;2023-02-27T11:00:28;2.70;99.90
3408;DHT22;1717;50.240;8.406;2023-02-27T11:02:58;2.70;99.90
3408;DHT22;1717;50.240;8.406;2023-02-27T11:05:27;2.60;99.90
3408;DHT22;1717;50.240;8.406;2023-02-27T11:07:55;2.70;99.90
3408;DHT22;1717;50.240;8.406;2023-02-27T11:10:35;2.80;99.90
3408;DHT22;1717;50.240;8.406;2023-02-27T11:13:05;2.90;99.90
3408;DHT22;1717;50.240;8.406;2023-02-27T11:15:35;2.90;99.90
3408;DHT22;1717;50.240;8.406;2023-02-27T11:18:23;2.90;99.70
3408;DHT22;1717;50.240;8.406;2023-02-27T11:20:51;3.00;99.80
3408;DHT22;1717;50.240;8.406;2023-02-27T11:23:21;3.00;99.70
3408;DHT22;1717;50.240;8.406;2023-02-27T11:25:48;3.00;99.30
3408;DHT22;1717;50.240;8.406;2023-02-27T11:28:23;3.00;99.30
3408;DHT22;1717;50.240;8.406;2023-02-27T11:31:00;3.00;99.50
3408;DHT22;1717;50.240;8.406;2023-02-27T11:33:32;3.10;99.90
3408;DHT22;1717;50.240;8.406;2023-02-27T11:36:01;3.20;99.90
3408;DHT22;1717;50.240;8.406;2023-02-27T11:38:30;3.20;99.70
3408;DHT22;1717;50.240;8.406;2023-02-27T11:41:01;3.20;98.80
3408;DHT22;1717;50.240;8.406;2023-02-27T11:43:31;3.20;98.90
3408;DHT22;1717;50.240;8.406;2023-02-27T11:46:03;3.30;99.40
3408;DHT22;1717;50.240;8.406;2023-02-27T11:48:37;3.30;99.50
3408;DHT22;1717;50.240;8.406;2023-02-27T11:51:22;3.30;99.50
3408;DHT22;1717;50.240;8.406;2023-02-27T11:54:06;3.30;99.80
3408;DHT22;1717;50.240;8.406;2023-02-27T11:56:36;3.30;99.50
3408;DHT22;1717;50.240;8.406;2023-02-27T11:59:10;3.30;99.00
3408;DHT22;1717;50.240;8.406;2023-02-27T12:01:44;3.30;98.70
3408;DHT22;1717;50.240;8.406;2023-02-27T12:04:16;3.30;99.00
3408;DHT22;1717;50.240;8.406;2023-02-27T12:06:51;3.20;99.10
3408;DHT22;1717;50.240;8.406;2023-02-27T12:09:37;3.20;99.20
3408;DHT22;1717;50.240;8.406;2023-02-27T12:12:14;3.30;98.90
3408;DHT22;1717;50.240;8.406;2023-02-27T12:14:47;3.40;99.20
3408;DHT22;1717;50.240;8.406;2023-02-27T12:17:21;3.20;98.70
3408;DHT22;1717;50.240;8.406;2023-02-27T12:20:07;3.20;98.50
3408;DHT22;1717;50.240;8.406;2023-02-27T12:22:43;3.20;98.10
3408;DHT22;1717;50.240;8.406;2023-02-27T12:25:16;3.40;98.00
3408;DHT22;1717;50.240;8.406;2023-02-27T12:27:51;3.20;98.30
3408;DHT22;1717;50.240;8.406;2023-02-27T12:30:22;3.20;98.10
3408;DHT22;1717;50.240;8.406;2023-02-27T12:32:54;3.20;98.30
3408;DHT22;1717;50.240;8.406;2023-02-27T12:35:27;3.20;97.70
3408;DHT22;1717;50.240;8.406;2023-02-27T12:37:55;3.20;97.30
3408;DHT22;1717;50.240;8.406;2023-02-27T12:40:28;3.20;96.90
3408;DHT22;1717;50.240;8.406;2023-02-27T12:43:11;3.20;97.20
3408;DHT22;1717;50.240;8.406;2023-02-27T12:46:00;3.20;97.00
3408;DHT22;1717;50.240;8.406;2023-02-27T12:48:45;3.20;96.60
3408;DHT22;1717;50.240;8.406;2023-02-27T12:51:29;3.20;96.10
3408;DHT22;1717;50.240;8.406;2023-02-27T12:54:13;3.20;95.90
3408;DHT22;1717;50.240;8.406;2023-02-27T12:56:54;3.30;95.80
3408;DHT22;1717;50.240;8.406;2023-02-27T12:59:46;3.30;96.10
3408;DHT22;1717;50.240;8.406;2023-02-27T13:02:28;3.30;96.20
3408;DHT22;1717;50.240;8.406;2023-02-27T13:05:08;3.30;96.10
3408;DHT22;1717;50.240;8.406;2023-02-27T13:07:45;3.40;95.80
3408;DHT22;1717;50.240;8.406;2023-02-27T13:10:20;3.40;95.20
3408;DHT22;1717;50.240;8.406;2023-02-27T13:12:51;3.40;94.80
3408;DHT22;1717;50.240;8.406;2023-02-27T13:15:22;3.40;94.60
3408;DHT22;1717;50.240;8.406;2023-02-27T13:17:55;3.50;94.40
3408;DHT22;1717;50.240;8.406;2023-02-27T13:20:30;3.50;94.00
3408;DHT22;1717;50.240;8.406;2023-02-27T13:23:05;3.50;93.70
3408;DHT22;1717;50.240;8.406;2023-02-27T13:25:36;3.50;93.70
3408;DHT22;1717;50.240;8.406;2023-02-27T13:28:07;3.50;93.80
3408;DHT22;1717;50.240;8.406;2023-02-27T13:30:41;3.50;93.50
3408;DHT22;1717;50.240;8.406;2023-02-27T13:33:18;3.50;93.50
3408;DHT22;1717;50.240;8.406;2023-02-27T13:35:53;3.40;92.50
3408;DHT22;1717;50.240;8.406;2023-02-27T13:38:32;3.40;92.80
3408;DHT22;1717;50.240;8.406;2023-02-27T13:41:33;3.40;92.60
3408;DHT22;1717;50.240;8.406;2023-02-27T13:44:37;3.30;92.60
3408;DHT22;1717;50.240;8.406;2023-02-27T13:47:38;3.30;92.70
3408;DHT22;1717;50.240;8.406;2023-02-27T13:53:18;3.40;93.50
3408;DHT22;1717;50.240;8.406;2023-02-27T13:55:47;3.50;93.90
3408;DHT22;1717;50.240;8.406;2023-02-27T13:58:17;3.60;93.60
3408;DHT22;1717;50.240;8.406;2023-02-27T14:01:00;3.70;93.90
3408;DHT22;1717;50.240;8.406;2023-02-27T14:03:28;3.80;92.50
3408;DHT22;1717;50.240;8.406;2023-02-27T14:06:01;3.90;93.00
3408;DHT22;1717;50.240;8.406;2023-02-27T14:08:35;3.90;93.20
3408;DHT22;1717;50.240;8.406;2023-02-27T14:11:15;4.00;93.50
3408;DHT22;1717;50.240;8.406;2023-02-27T14:14:03;4.10;93.20
3408;DHT22;1717;50.240;8.406;2023-02-27T14:16:55;4.20;92.90
3408;DHT22;1717;50.240;8.406;2023-02-27T14:19:50;4.20;92.80
3408;DHT22;1717;50.240;8.406;2023-02-27T14:25:33;4.30;92.00
3408;DHT22;1717;50.240;8.406;2023-02-27T14:28:00;4.30;91.70
3408;DHT22;1717;50.240;8.406;2023-02-27T14:30:37;4.40;90.60
3408;DHT22;1717;50.240;8.406;2023-02-27T14:33:13;4.40;90.70
3408;DHT22;1717;50.240;8.406;2023-02-27T14:35:45;4.50;90.80
3408;DHT22;1717;50.240;8.406;2023-02-27T14:38:16;4.60;91.70
3408;DHT22;1717;50.240;8.406;2023-02-27T14:40:57;4.60;91.60
3408;DHT22;1717;50.240;8.406;2023-02-27T14:43:34;4.60;90.30
3408;DHT22;1717;50.240;8.406;2023-02-27T14:46:10;4.60;90.90
3408;DHT22;1717;50.240;8.406;2023-02-27T14:48:38;4.70;91.00
3408;DHT22;1717;50.240;8.406;2023-02-27T14:51:05;4.60;89.80
3408;DHT22;1717;50.240;8.406;2023-02-27T14:53:33;4.70;90.80
3408;DHT22;1717;50.240;8.406;2023-02-27T14:56:02;4.70;89.00
3408;DHT22;1717;50.240;8.406;2023-02-27T14:58:30;4.70;90.40
3408;DHT22;1717;50.240;8.406;2023-02-27T15:01:04;4.70;89.30
3408;DHT22;1717;50.240;8.406;2023-02-27T15:03:36;4.70;87.50
3408;DHT22;1717;50.240;8.406;2023-02-27T15:06:12;4.70;88.90
3408;DHT22;1717;50.240;8.406;2023-02-27T15:08:45;4.70;89.60
3408;DHT22;1717;50.240;8.406;2023-02-27T15:11:16;4.70;87.40
3408;DHT22;1717;50.240;8.406;2023-02-27T15:13:44;4.70;90.40
3408;DHT22;1717;50.240;8.406;2023-02-27T15:16:35;4.70;87.90
3408;DHT22;1717;50.240;8.406;2023-02-27T15:19:14;4.70;86.20
3408;DHT22;1717;50.240;8.406;2023-02-27T15:21:44;4.80;86.00
3408;DHT22;1717;50.240;8.406;2023-02-27T15:24:24;4.70;87.20
3408;DHT22;1717;50.240;8.406;2023-02-27T15:26:55;4.80;90.60
3408;DHT22;1717;50.240;8.406;2023-02-27T15:29:25;4.70;83.60
3408;DHT22;1717;50.240;8.406;2023-02-27T15:31:54;4.70;83.30
3408;DHT22;1717;50.240;8.406;2023-02-27T15:34:21;4.70;85.30
3408;DHT22;1717;50.240;8.406;2023-02-27T15:36:51;4.70;84.30
3408;DHT22;1717;50.240;8.406;2023-02-27T15:39:21;4.70;83.40
3408;DHT22;1717;50.240;8.406;2023-02-27T15:41:50;4.60;83.50
3408;DHT22;1717;50.240;8.406;2023-02-27T15:44:22;4.60;82.60
3408;DHT22;1717;50.240;8.406;2023-02-27T15:46:50;4.60;84.00
3408;DHT22;1717;50.240;8.406;2023-02-27T15:49:20;4.60;82.90
3408;DHT22;1717;50.240;8.406;2023-02-27T15:51:54;4.60;83.30
3408;DHT22;1717;50.240;8.406;2023-02-27T15:54:23;4.50;82.20
3408;DHT22;1717;50.240;8.406;2023-02-27T15:56:51;4.50;82.90
3408;DHT22;1717;50.240;8.406;2023-02-27T15:59:20;4.50;82.90
3408;DHT22;1717;50.240;8.406;2023-02-27T16:01:47;4.50;81.90
3408;DHT22;1717;50.240;8.406;2023-02-27T16:04:18;4.40;81.90
3408;DHT22;1717;50.240;8.406;2023-02-27T16:06:50;4.40;80.50
3408;DHT22;1717;50.240;8.406;2023-02-27T16:09:21;4.30;79.10
3408;DHT22;1717;50.240;8.406;2023-02-27T16:11:52;4.30;80.50
3408;DHT22;1717;50.240;8.406;2023-02-27T16:14:37;4.30;81.60
3408;DHT22;1717;50.240;8.406;2023-02-27T16:17:27;4.30;81.00
3408;DHT22;1717;50.240;8.406;2023-02-27T16:19:56;4.30;80.40
3408;DHT22;1717;50.240;8.406;2023-02-27T16:22:24;4.30;81.00
3408;DHT22;1717;50.240;8.406;2023-02-27T16:24:52;4.20;80.00
3408;DHT22;1717;50.240;8.406;2023-02-27T16:27:23;4.20;80.10
3408;DHT22;1717;50.240;8.406;2023-02-27T16:29:53;4.20;78.00
3408;DHT22;1717;50.240;8.406;2023-02-27T16:32:26;4.10;78.70
3408;DHT22;1717;50.240;8.406;2023-02-27T16:35:00;4.00;79.60
3408;DHT22;1717;50.240;8.406;2023-02-27T16:37:34;4.10;80.90
3408;DHT22;1717;50.240;8.406;2023-02-27T16:40:07;4.00;80.20
3408;DHT22;1717;50.240;8.406;2023-02-27T16:42:35;4.00;81.50
3408;DHT22;1717;50.240;8.406;2023-02-27T16:45:04;4.00;80.60
3408;DHT22;1717;50.240;8.406;2023-02-27T16:47:31;3.90;81.30
3408;DHT22;1717;50.240;8.406;2023-02-27T16:49:58;4.00;82.50
3408;DHT22;1717;50.240;8.406;2023-02-27T16:52:25;3.90;82.90
3408;DHT22;1717;50.240;8.406;2023-02-27T16:54:52;3.90;82.80
3408;DHT22;1717;50.240;8.406;2023-02-27T16:57:19;3.80;82.90
3408;DHT22;1717;50.240;8.406;2023-02-27T16:59:52;3.80;83.30
3408;DHT22;1717;50.240;8.406;2023-02-27T17:02:21;3.80;82.50
3408;DHT22;1717;50.240;8.406;2023-02-27T17:04:47;3.70;82.70